sensor_id;sensor_type;location;lat;lon;timestamp;P1;durP1;ratioP1;P2;durP2;ratioP2
12141;SDS011;6134;59.284;18.022;2022-10-03T00:00:11;16.63;;;14.43;;
12141;SDS011;6134;59.284;18.022;2022-10-03T00:02:47;15.35;;;13.80;;
12141;SDS011;6134;59.284;18.022;2022-10-03T00:05:26;16.20;;;14.30;;
12141;SDS011;6134;59.284;18.022;2022-10-03T00:08:01;15.60;;;14.05;;
12141;SDS011;6134;59.284;18.022;2022-10-03T00:10:33;16.63;;;13.85;;
12141;SDS011;6134;59.284;18.022;2022-10-03T00:13:07;15.32;;;13.73;;
12141;SDS011;6134;59.284;18.022;2022-10-03T00:15:42;16.35;;;13.35;;
12141;SDS011;6134;59.284;18.022;2022-10-03T00:18:14;15.63;;;14.02;;
12141;SDS011;6134;59.284;18.022;2022-10-03T00:20:52;15.13;;;13.60;;
12141;SDS011;6134;59.284;18.022;2022-10-03T00:23:32;15.18;;;13.68;;
12141;SDS011;6134;59.284;18.022;2022-10-03T00:26:04;14.75;;;13.30;;
12141;SDS011;6134;59.284;18.022;2022-10-03T00:28:50;14.68;;;13.23;;
12141;SDS011;6134;59.284;18.022;2022-10-03T00:31:22;15.75;;;13.80;;
12141;SDS011;6134;59.284;18.022;2022-10-03T00:33:56;17.77;;;13.52;;
12141;SDS011;6134;59.284;18.022;2022-10-03T00:36:30;14.57;;;13.10;;
12141;SDS011;6134;59.284;18.022;2022-10-03T00:39:09;15.15;;;13.55;;
12141;SDS011;6134;59.284;18.022;2022-10-03T00:47:36;15.68;;;13.38;;
12141;SDS011;6134;59.284;18.022;2022-10-03T00:50:18;14.38;;;12.32;;
12141;SDS011;6134;59.284;18.022;2022-10-03T00:52:55;13.93;;;12.32;;
12141;SDS011;6134;59.284;18.022;2022-10-03T00:55:29;13.60;;;12.20;;
12141;SDS011;6134;59.284;18.022;2022-10-03T01:00:46;13.77;;;12.38;;
12141;SDS011;6134;59.284;18.022;2022-10-03T01:06:03;14.80;;;13.27;;
12141;SDS011;6134;59.284;18.022;2022-10-03T01:08:41;14.45;;;12.82;;
12141;SDS011;6134;59.284;18.022;2022-10-03T01:11:15;13.38;;;12.00;;
12141;SDS011;6134;59.284;18.022;2022-10-03T01:13:47;13.98;;;12.57;;
12141;SDS011;6134;59.284;18.022;2022-10-03T01:16:20;15.18;;;12.82;;
12141;SDS011;6134;59.284;18.022;2022-10-03T01:18:53;14.80;;;13.13;;
12141;SDS011;6134;59.284;18.022;2022-10-03T01:21:27;15.07;;;12.57;;
12141;SDS011;6134;59.284;18.022;2022-10-03T01:26:56;14.18;;;12.68;;
12141;SDS011;6134;59.284;18.022;2022-10-03T01:29:31;13.25;;;11.82;;
12141;SDS011;6134;59.284;18.022;2022-10-03T01:32:22;13.18;;;11.65;;
12141;SDS011;6134;59.284;18.022;2022-10-03T01:34:53;14.23;;;12.82;;
12141;SDS011;6134;59.284;18.022;2022-10-03T01:37:25;13.82;;;12.43;;
12141;SDS011;6134;59.284;18.022;2022-10-03T01:39:58;13.23;;;11.93;;
12141;SDS011;6134;59.284;18.022;2022-10-03T01:42:33;13.23;;;11.38;;
12141;SDS011;6134;59.284;18.022;2022-10-03T01:45:13;13.40;;;11.15;;
12141;SDS011;6134;59.284;18.022;2022-10-03T01:47:43;11.85;;;10.57;;
12141;SDS011;6134;59.284;18.022;2022-10-03T01:50:18;11.90;;;10.68;;
12141;SDS011;6134;59.284;18.022;2022-10-03T01:52:51;12.40;;;11.10;;
12141;SDS011;6134;59.284;18.022;2022-10-03T01:55:22;13.23;;;11.85;;
12141;SDS011;6134;59.284;18.022;2022-10-03T01:57:53;13.63;;;11.65;;
12141;SDS011;6134;59.284;18.022;2022-10-03T02:00:29;12.50;;;11.30;;
12141;SDS011;6134;59.284;18.022;2022-10-03T02:02:59;13.13;;;11.73;;
12141;SDS011;6134;59.284;18.022;2022-10-03T02:05:35;14.38;;;12.88;;
12141;SDS011;6134;59.284;18.022;2022-10-03T02:08:06;13.13;;;11.70;;
12141;SDS011;6134;59.284;18.022;2022-10-03T02:10:42;13.38;;;11.95;;
12141;SDS011;6134;59.284;18.022;2022-10-03T02:13:11;13.32;;;11.95;;
12141;SDS011;6134;59.284;18.022;2022-10-03T02:15:45;13.70;;;12.30;;
12141;SDS011;6134;59.284;18.022;2022-10-03T02:18:17;12.82;;;11.45;;
12141;SDS011;6134;59.284;18.022;2022-10-03T02:20:49;13.02;;;11.55;;
12141;SDS011;6134;59.284;18.022;2022-10-03T02:23:22;14.07;;;11.63;;
12141;SDS011;6134;59.284;18.022;2022-10-03T02:25:53;13.02;;;11.25;;
12141;SDS011;6134;59.284;18.022;2022-10-03T02:28:51;13.43;;;11.88;;
12141;SDS011;6134;59.284;18.022;2022-10-03T02:34:20;11.68;;;10.57;;
12141;SDS011;6134;59.284;18.022;2022-10-03T02:39:59;12.48;;;11.02;;
12141;SDS011;6134;59.284;18.022;2022-10-03T02:45:37;11.30;;;10.13;;
12141;SDS011;6134;59.284;18.022;2022-10-03T02:48:21;11.68;;;10.43;;
12141;SDS011;6134;59.284;18.022;2022-10-03T02:53:57;11.25;;;10.15;;
12141;SDS011;6134;59.284;18.022;2022-10-03T02:56:40;12.25;;;10.95;;
12141;SDS011;6134;59.284;18.022;2022-10-03T03:02:01;11.20;;;10.02;;
12141;SDS011;6134;59.284;18.022;2022-10-03T03:13:04;11.45;;;10.35;;
12141;SDS011;6134;59.284;18.022;2022-10-03T03:18:25;10.48;;;9.48;;
12141;SDS011;6134;59.284;18.022;2022-10-03T03:21:01;11.05;;;9.48;;
12141;SDS011;6134;59.284;18.022;2022-10-03T03:26:25;11.15;;;9.52;;
12141;SDS011;6134;59.284;18.022;2022-10-03T03:29:02;13.75;;;10.25;;
12141;SDS011;6134;59.284;18.022;2022-10-03T03:31:35;10.32;;;9.27;;
12141;SDS011;6134;59.284;18.022;2022-10-03T03:34:08;9.85;;;8.90;;
12141;SDS011;6134;59.284;18.022;2022-10-03T03:36:42;10.35;;;9.25;;
12141;SDS011;6134;59.284;18.022;2022-10-03T03:39:30;12.80;;;10.07;;
12141;SDS011;6134;59.284;18.022;2022-10-03T03:42:06;10.32;;;9.25;;
12141;SDS011;6134;59.284;18.022;2022-10-03T03:44:51;11.88;;;9.18;;
12141;SDS011;6134;59.284;18.022;2022-10-03T03:47:27;11.18;;;10.05;;
12141;SDS011;6134;59.284;18.022;2022-10-03T03:50:09;13.60;;;9.77;;
12141;SDS011;6134;59.284;18.022;2022-10-03T03:52:44;10.15;;;9.15;;
12141;SDS011;6134;59.284;18.022;2022-10-03T03:55:25;10.48;;;9.48;;
12141;SDS011;6134;59.284;18.022;2022-10-03T03:57:59;10.25;;;9.25;;
12141;SDS011;6134;59.284;18.022;2022-10-03T04:00:36;13.25;;;9.40;;
12141;SDS011;6134;59.284;18.022;2022-10-03T04:03:12;9.20;;;8.30;;
12141;SDS011;6134;59.284;18.022;2022-10-03T04:05:52;8.95;;;7.97;;
12141;SDS011;6134;59.284;18.022;2022-10-03T04:08:28;9.85;;;8.60;;
12141;SDS011;6134;59.284;18.022;2022-10-03T04:11:04;9.20;;;8.18;;
12141;SDS011;6134;59.284;18.022;2022-10-03T04:13:50;10.02;;;8.98;;
12141;SDS011;6134;59.284;18.022;2022-10-03T04:19:29;12.57;;;9.90;;
12141;SDS011;6134;59.284;18.022;2022-10-03T04:22:07;11.18;;;9.15;;
12141;SDS011;6134;59.284;18.022;2022-10-03T04:24:54;10.63;;;8.75;;
12141;SDS011;6134;59.284;18.022;2022-10-03T04:27:28;9.23;;;8.32;;
12141;SDS011;6134;59.284;18.022;2022-10-03T04:30:02;9.25;;;8.35;;
12141;SDS011;6134;59.284;18.022;2022-10-03T04:32:41;14.40;;;9.20;;
12141;SDS011;6134;59.284;18.022;2022-10-03T04:35:23;14.95;;;9.65;;
12141;SDS011;6134;59.284;18.022;2022-10-03T04:37:55;12.18;;;8.85;;
12141;SDS011;6134;59.284;18.022;2022-10-03T04:40:29;12.05;;;9.60;;
12141;SDS011;6134;59.284;18.022;2022-10-03T04:43:08;13.48;;;10.05;;
12141;SDS011;6134;59.284;18.022;2022-10-03T04:45:39;10.70;;;8.80;;
12141;SDS011;6134;59.284;18.022;2022-10-03T04:48:12;10.57;;;9.13;;
12141;SDS011;6134;59.284;18.022;2022-10-03T04:50:46;11.07;;;9.63;;
12141;SDS011;6134;59.284;18.022;2022-10-03T04:53:28;12.27;;;9.82;;
12141;SDS011;6134;59.284;18.022;2022-10-03T04:56:09;15.57;;;9.82;;
12141;SDS011;6134;59.284;18.022;2022-10-03T04:58:39;11.90;;;9.88;;
12141;SDS011;6134;59.284;18.022;2022-10-03T05:01:12;11.35;;;10.15;;
12141;SDS011;6134;59.284;18.022;2022-10-03T05:03:56;11.48;;;9.48;;
12141;SDS011;6134;59.284;18.022;2022-10-03T05:06:34;10.57;;;9.13;;
12141;SDS011;6134;59.284;18.022;2022-10-03T05:09:11;11.85;;;10.57;;
12141;SDS011;6134;59.284;18.022;2022-10-03T05:11:46;11.88;;;10.32;;
12141;SDS011;6134;59.284;18.022;2022-10-03T05:14:17;12.18;;;9.93;;
12141;SDS011;6134;59.284;18.022;2022-10-03T05:16:49;12.80;;;9.18;;
12141;SDS011;6134;59.284;18.022;2022-10-03T05:22:13;12.32;;;9.35;;
12141;SDS011;6134;59.284;18.022;2022-10-03T05:24:47;14.35;;;10.05;;
12141;SDS011;6134;59.284;18.022;2022-10-03T05:27:21;14.75;;;9.45;;
12141;SDS011;6134;59.284;18.022;2022-10-03T05:29:56;12.80;;;9.25;;
12141;SDS011;6134;59.284;18.022;2022-10-03T05:32:29;11.73;;;9.52;;
12141;SDS011;6134;59.284;18.022;2022-10-03T05:35:14;13.50;;;10.13;;
12141;SDS011;6134;59.284;18.022;2022-10-03T05:40:36;13.70;;;10.70;;
12141;SDS011;6134;59.284;18.022;2022-10-03T05:43:09;11.35;;;9.30;;
12141;SDS011;6134;59.284;18.022;2022-10-03T05:45:46;10.80;;;9.70;;
12141;SDS011;6134;59.284;18.022;2022-10-03T05:48:22;13.57;;;9.75;;
12141;SDS011;6134;59.284;18.022;2022-10-03T05:50:55;12.45;;;10.57;;
12141;SDS011;6134;59.284;18.022;2022-10-03T05:53:41;14.55;;;10.75;;
12141;SDS011;6134;59.284;18.022;2022-10-03T05:56:17;13.23;;;10.57;;
12141;SDS011;6134;59.284;18.022;2022-10-03T05:59:11;12.80;;;10.05;;
12141;SDS011;6134;59.284;18.022;2022-10-03T06:01:51;16.08;;;11.52;;
12141;SDS011;6134;59.284;18.022;2022-10-03T06:04:44;11.95;;;10.65;;
12141;SDS011;6134;59.284;18.022;2022-10-03T06:07:20;13.57;;;10.35;;
12141;SDS011;6134;59.284;18.022;2022-10-03T06:12:36;12.30;;;9.60;;
12141;SDS011;6134;59.284;18.022;2022-10-03T06:18:01;11.45;;;10.00;;
12141;SDS011;6134;59.284;18.022;2022-10-03T06:20:43;12.65;;;10.38;;
12141;SDS011;6134;59.284;18.022;2022-10-03T06:23:26;14.95;;;12.27;;
12141;SDS011;6134;59.284;18.022;2022-10-03T06:26:03;12.98;;;11.43;;
12141;SDS011;6134;59.284;18.022;2022-10-03T06:28:43;14.90;;;11.57;;
12141;SDS011;6134;59.284;18.022;2022-10-03T06:31:25;13.50;;;11.60;;
12141;SDS011;6134;59.284;18.022;2022-10-03T06:34:17;12.43;;;10.98;;
12141;SDS011;6134;59.284;18.022;2022-10-03T06:37:05;14.68;;;11.75;;
12141;SDS011;6134;59.284;18.022;2022-10-03T06:39:50;13.45;;;12.05;;
12141;SDS011;6134;59.284;18.022;2022-10-03T06:48:01;14.50;;;11.65;;
12141;SDS011;6134;59.284;18.022;2022-10-03T06:50:37;14.35;;;12.05;;
12141;SDS011;6134;59.284;18.022;2022-10-03T06:53:21;14.75;;;13.15;;
12141;SDS011;6134;59.284;18.022;2022-10-03T07:01:37;14.15;;;12.65;;
12141;SDS011;6134;59.284;18.022;2022-10-03T07:07:18;14.10;;;12.18;;
12141;SDS011;6134;59.284;18.022;2022-10-03T07:09:55;15.38;;;12.52;;
12141;SDS011;6134;59.284;18.022;2022-10-03T07:18:39;14.90;;;12.90;;
12141;SDS011;6134;59.284;18.022;2022-10-03T07:21:23;14.50;;;12.95;;
12141;SDS011;6134;59.284;18.022;2022-10-03T07:24:10;16.27;;;13.70;;
12141;SDS011;6134;59.284;18.022;2022-10-03T07:26:46;17.70;;;14.52;;
12141;SDS011;6134;59.284;18.022;2022-10-03T07:29:23;19.38;;;15.55;;
12141;SDS011;6134;59.284;18.022;2022-10-03T07:32:03;22.35;;;18.17;;
12141;SDS011;6134;59.284;18.022;2022-10-03T07:37:27;16.42;;;12.93;;
12141;SDS011;6134;59.284;18.022;2022-10-03T07:40:33;16.27;;;14.02;;
12141;SDS011;6134;59.284;18.022;2022-10-03T07:51:34;15.02;;;12.75;;
12141;SDS011;6134;59.284;18.022;2022-10-03T07:56:56;15.18;;;13.57;;
12141;SDS011;6134;59.284;18.022;2022-10-03T08:02:24;15.68;;;13.85;;
12141;SDS011;6134;59.284;18.022;2022-10-03T08:05:01;15.57;;;13.23;;
12141;SDS011;6134;59.284;18.022;2022-10-03T08:07:41;15.05;;;13.45;;
12141;SDS011;6134;59.284;18.022;2022-10-03T08:10:38;15.25;;;13.65;;
12141;SDS011;6134;59.284;18.022;2022-10-03T08:13:15;15.25;;;13.63;;
12141;SDS011;6134;59.284;18.022;2022-10-03T08:15:58;15.15;;;13.55;;
12141;SDS011;6134;59.284;18.022;2022-10-03T08:18:50;17.27;;;14.23;;
12141;SDS011;6134;59.284;18.022;2022-10-03T08:21:25;14.05;;;12.48;;
12141;SDS011;6134;59.284;18.022;2022-10-03T08:24:05;14.93;;;13.07;;
12141;SDS011;6134;59.284;18.022;2022-10-03T08:26:48;16.45;;;13.73;;
12141;SDS011;6134;59.284;18.022;2022-10-03T08:29:33;13.68;;;12.32;;
12141;SDS011;6134;59.284;18.022;2022-10-03T08:38:03;12.32;;;9.13;;
12141;SDS011;6134;59.284;18.022;2022-10-03T08:40:51;10.32;;;9.43;;
12141;SDS011;6134;59.284;18.022;2022-10-03T08:46:22;11.55;;;9.93;;
12141;SDS011;6134;59.284;18.022;2022-10-03T08:48:57;11.82;;;10.73;;
12141;SDS011;6134;59.284;18.022;2022-10-03T08:57:10;13.32;;;11.23;;
12141;SDS011;6134;59.284;18.022;2022-10-03T08:59:58;12.45;;;11.05;;
12141;SDS011;6134;59.284;18.022;2022-10-03T09:08:34;10.48;;;9.48;;
12141;SDS011;6134;59.284;18.022;2022-10-03T09:11:18;9.68;;;8.80;;
12141;SDS011;6134;59.284;18.022;2022-10-03T09:16:47;10.18;;;9.25;;
12141;SDS011;6134;59.284;18.022;2022-10-03T09:19:27;9.38;;;8.50;;
12141;SDS011;6134;59.284;18.022;2022-10-03T09:22:10;10.52;;;9.55;;
12141;SDS011;6134;59.284;18.022;2022-10-03T09:27:43;8.45;;;7.68;;
12141;SDS011;6134;59.284;18.022;2022-10-03T09:30:18;8.88;;;8.07;;
12141;SDS011;6134;59.284;18.022;2022-10-03T09:32:58;9.55;;;8.55;;
12141;SDS011;6134;59.284;18.022;2022-10-03T09:38:20;7.85;;;7.15;;
12141;SDS011;6134;59.284;18.022;2022-10-03T09:43:49;8.90;;;7.63;;
12141;SDS011;6134;59.284;18.022;2022-10-03T09:46:34;8.13;;;7.32;;
12141;SDS011;6134;59.284;18.022;2022-10-03T09:52:05;8.93;;;8.02;;
12141;SDS011;6134;59.284;18.022;2022-10-03T10:00:22;9.05;;;7.80;;
12141;SDS011;6134;59.284;18.022;2022-10-03T10:03:03;8.85;;;7.95;;
12141;SDS011;6134;59.284;18.022;2022-10-03T10:05:47;9.55;;;8.65;;
12141;SDS011;6134;59.284;18.022;2022-10-03T10:08:40;9.38;;;8.48;;
12141;SDS011;6134;59.284;18.022;2022-10-03T10:11:19;9.73;;;8.82;;
12141;SDS011;6134;59.284;18.022;2022-10-03T10:16:53;8.60;;;7.78;;
12141;SDS011;6134;59.284;18.022;2022-10-03T10:19:36;9.00;;;8.20;;
12141;SDS011;6134;59.284;18.022;2022-10-03T10:22:20;9.55;;;8.55;;
12141;SDS011;6134;59.284;18.022;2022-10-03T10:30:42;9.57;;;8.43;;
12141;SDS011;6134;59.284;18.022;2022-10-03T10:33:36;9.48;;;8.27;;
12141;SDS011;6134;59.284;18.022;2022-10-03T10:47:39;9.93;;;9.02;;
12141;SDS011;6134;59.284;18.022;2022-10-03T11:04:26;10.95;;;9.85;;
12141;SDS011;6134;59.284;18.022;2022-10-03T11:07:07;11.25;;;10.10;;
12141;SDS011;6134;59.284;18.022;2022-10-03T11:12:46;10.07;;;9.18;;
12141;SDS011;6134;59.284;18.022;2022-10-03T11:15:40;11.48;;;10.27;;
12141;SDS011;6134;59.284;18.022;2022-10-03T11:21:22;12.05;;;9.32;;
12141;SDS011;6134;59.284;18.022;2022-10-03T11:29:32;11.45;;;10.25;;
12141;SDS011;6134;59.284;18.022;2022-10-03T11:37:55;11.25;;;10.15;;
12141;SDS011;6134;59.284;18.022;2022-10-03T11:40:30;11.18;;;10.07;;
12141;SDS011;6134;59.284;18.022;2022-10-03T11:45:54;11.15;;;9.90;;
12141;SDS011;6134;59.284;18.022;2022-10-03T11:48:27;13.38;;;10.02;;
12141;SDS011;6134;59.284;18.022;2022-10-03T11:50:57;10.68;;;9.68;;
12141;SDS011;6134;59.284;18.022;2022-10-03T11:53:38;11.02;;;9.98;;
12141;SDS011;6134;59.284;18.022;2022-10-03T11:56:13;12.35;;;11.25;;
12141;SDS011;6134;59.284;18.022;2022-10-03T11:58:51;12.48;;;11.20;;
12141;SDS011;6134;59.284;18.022;2022-10-03T12:01:24;13.15;;;11.77;;
12141;SDS011;6134;59.284;18.022;2022-10-03T12:03:56;12.18;;;11.02;;
12141;SDS011;6134;59.284;18.022;2022-10-03T12:06:36;11.45;;;10.20;;
12141;SDS011;6134;59.284;18.022;2022-10-03T12:09:26;12.10;;;10.90;;
12141;SDS011;6134;59.284;18.022;2022-10-03T12:11:59;12.18;;;10.98;;
12141;SDS011;6134;59.284;18.022;2022-10-03T12:14:31;11.70;;;10.60;;
12141;SDS011;6134;59.284;18.022;2022-10-03T12:17:04;12.57;;;11.30;;
12141;SDS011;6134;59.284;18.022;2022-10-03T12:19:34;17.38;;;10.88;;
12141;SDS011;6134;59.284;18.022;2022-10-03T12:22:07;12.73;;;10.63;;
12141;SDS011;6134;59.284;18.022;2022-10-03T12:24:42;12.75;;;11.45;;
12141;SDS011;6134;59.284;18.022;2022-10-03T12:27:15;12.60;;;11.40;;
12141;SDS011;6134;59.284;18.022;2022-10-03T12:29:51;11.75;;;10.65;;
12141;SDS011;6134;59.284;18.022;2022-10-03T12:32:31;11.45;;;10.35;;
12141;SDS011;6134;59.284;18.022;2022-10-03T12:35:07;11.73;;;10.63;;
12141;SDS011;6134;59.284;18.022;2022-10-03T12:37:41;14.52;;;10.93;;
12141;SDS011;6134;59.284;18.022;2022-10-03T12:40:15;12.45;;;11.13;;
12141;SDS011;6134;59.284;18.022;2022-10-03T12:42:46;11.55;;;10.50;;
12141;SDS011;6134;59.284;18.022;2022-10-03T12:45:19;11.43;;;10.23;;
12141;SDS011;6134;59.284;18.022;2022-10-03T12:50:36;12.45;;;11.23;;
12141;SDS011;6134;59.284;18.022;2022-10-03T12:58:46;12.25;;;11.05;;
12141;SDS011;6134;59.284;18.022;2022-10-03T13:01:19;12.75;;;11.45;;
12141;SDS011;6134;59.284;18.022;2022-10-03T13:03:52;12.18;;;10.77;;
12141;SDS011;6134;59.284;18.022;2022-10-03T13:06:28;12.15;;;10.45;;
12141;SDS011;6134;59.284;18.022;2022-10-03T13:09:21;11.50;;;10.30;;
12141;SDS011;6134;59.284;18.022;2022-10-03T13:11:56;12.98;;;10.07;;
12141;SDS011;6134;59.284;18.022;2022-10-03T13:14:29;11.40;;;10.30;;
12141;SDS011;6134;59.284;18.022;2022-10-03T13:17:00;11.90;;;10.57;;
12141;SDS011;6134;59.284;18.022;2022-10-03T13:19:32;11.43;;;10.32;;
12141;SDS011;6134;59.284;18.022;2022-10-03T13:22:10;11.07;;;10.00;;
12141;SDS011;6134;59.284;18.022;2022-10-03T13:24:45;11.02;;;9.73;;
12141;SDS011;6134;59.284;18.022;2022-10-03T13:27:24;12.05;;;10.32;;
12141;SDS011;6134;59.284;18.022;2022-10-03T13:29:58;10.75;;;9.63;;
12141;SDS011;6134;59.284;18.022;2022-10-03T13:32:31;10.13;;;9.13;;
12141;SDS011;6134;59.284;18.022;2022-10-03T13:40:47;10.05;;;9.05;;
12141;SDS011;6134;59.284;18.022;2022-10-03T13:43:20;9.93;;;8.95;;
12141;SDS011;6134;59.284;18.022;2022-10-03T13:45:51;10.13;;;9.23;;
12141;SDS011;6134;59.284;18.022;2022-10-03T13:48:24;9.68;;;8.73;;
12141;SDS011;6134;59.284;18.022;2022-10-03T13:50:54;10.10;;;9.15;;
12141;SDS011;6134;59.284;18.022;2022-10-03T13:53:40;10.13;;;9.13;;
12141;SDS011;6134;59.284;18.022;2022-10-03T13:56:12;10.13;;;9.23;;
12141;SDS011;6134;59.284;18.022;2022-10-03T13:58:44;9.43;;;8.52;;
12141;SDS011;6134;59.284;18.022;2022-10-03T14:01:23;13.02;;;8.90;;
12141;SDS011;6134;59.284;18.022;2022-10-03T14:03:59;9.27;;;7.45;;
12141;SDS011;6134;59.284;18.022;2022-10-03T14:06:32;8.20;;;7.40;;
12141;SDS011;6134;59.284;18.022;2022-10-03T14:09:12;8.65;;;7.28;;
12141;SDS011;6134;59.284;18.022;2022-10-03T14:11:48;9.32;;;8.18;;
12141;SDS011;6134;59.284;18.022;2022-10-03T14:14:30;8.65;;;7.68;;
12141;SDS011;6134;59.284;18.022;2022-10-03T14:17:07;8.65;;;7.03;;
12141;SDS011;6134;59.284;18.022;2022-10-03T14:19:38;8.55;;;7.75;;
12141;SDS011;6134;59.284;18.022;2022-10-03T14:22:16;9.25;;;8.20;;
12141;SDS011;6134;59.284;18.022;2022-10-03T14:24:50;8.45;;;7.43;;
12141;SDS011;6134;59.284;18.022;2022-10-03T14:27:43;8.35;;;7.55;;
12141;SDS011;6134;59.284;18.022;2022-10-03T14:30:14;8.48;;;7.20;;
12141;SDS011;6134;59.284;18.022;2022-10-03T14:32:48;6.93;;;6.32;;
12141;SDS011;6134;59.284;18.022;2022-10-03T14:35:32;6.22;;;5.72;;
12141;SDS011;6134;59.284;18.022;2022-10-03T14:38:08;5.97;;;5.38;;
12141;SDS011;6134;59.284;18.022;2022-10-03T14:40:41;6.60;;;5.90;;
12141;SDS011;6134;59.284;18.022;2022-10-03T14:43:18;5.95;;;5.45;;
12141;SDS011;6134;59.284;18.022;2022-10-03T14:45:51;6.07;;;5.25;;
12141;SDS011;6134;59.284;18.022;2022-10-03T14:48:22;5.60;;;5.07;;
12141;SDS011;6134;59.284;18.022;2022-10-03T14:50:54;5.65;;;5.15;;
12141;SDS011;6134;59.284;18.022;2022-10-03T14:53:28;6.10;;;5.22;;
12141;SDS011;6134;59.284;18.022;2022-10-03T14:55:58;5.40;;;4.88;;
12141;SDS011;6134;59.284;18.022;2022-10-03T14:58:29;5.78;;;4.57;;
12141;SDS011;6134;59.284;18.022;2022-10-03T15:01:03;5.55;;;5.10;;
12141;SDS011;6134;59.284;18.022;2022-10-03T15:03:34;6.85;;;5.15;;
12141;SDS011;6134;59.284;18.022;2022-10-03T15:06:21;6.63;;;4.93;;
12141;SDS011;6134;59.284;18.022;2022-10-03T15:08:59;6.18;;;4.78;;
12141;SDS011;6134;59.284;18.022;2022-10-03T15:11:30;4.80;;;4.40;;
12141;SDS011;6134;59.284;18.022;2022-10-03T15:14:00;5.32;;;4.82;;
12141;SDS011;6134;59.284;18.022;2022-10-03T15:16:31;4.55;;;4.15;;
12141;SDS011;6134;59.284;18.022;2022-10-03T15:19:04;4.57;;;4.18;;
12141;SDS011;6134;59.284;18.022;2022-10-03T15:21:35;6.57;;;4.50;;
12141;SDS011;6134;59.284;18.022;2022-10-03T15:24:05;6.13;;;4.05;;
12141;SDS011;6134;59.284;18.022;2022-10-03T15:26:46;8.20;;;4.38;;
12141;SDS011;6134;59.284;18.022;2022-10-03T15:29:16;4.70;;;3.90;;
12141;SDS011;6134;59.284;18.022;2022-10-03T15:31:46;6.57;;;3.95;;
12141;SDS011;6134;59.284;18.022;2022-10-03T15:34:17;5.93;;;3.60;;
12141;SDS011;6134;59.284;18.022;2022-10-03T15:36:48;4.22;;;3.92;;
12141;SDS011;6134;59.284;18.022;2022-10-03T15:39:17;5.22;;;3.63;;
12141;SDS011;6134;59.284;18.022;2022-10-03T15:41:48;4.82;;;3.33;;
12141;SDS011;6134;59.284;18.022;2022-10-03T15:44:17;3.17;;;2.97;;
12141;SDS011;6134;59.284;18.022;2022-10-03T15:46:47;4.63;;;3.75;;
12141;SDS011;6134;59.284;18.022;2022-10-03T15:49:21;6.65;;;3.67;;
12141;SDS011;6134;59.284;18.022;2022-10-03T15:51:52;4.43;;;4.03;;
12141;SDS011;6134;59.284;18.022;2022-10-03T15:54:22;4.05;;;3.60;;
12141;SDS011;6134;59.284;18.022;2022-10-03T15:56:52;4.43;;;3.80;;
12141;SDS011;6134;59.284;18.022;2022-10-03T15:59:24;5.38;;;3.85;;
12141;SDS011;6134;59.284;18.022;2022-10-03T16:01:54;4.22;;;3.83;;
12141;SDS011;6134;59.284;18.022;2022-10-03T16:04:26;4.72;;;4.15;;
12141;SDS011;6134;59.284;18.022;2022-10-03T16:06:59;4.28;;;3.78;;
12141;SDS011;6134;59.284;18.022;2022-10-03T16:09:31;3.72;;;3.42;;
12141;SDS011;6134;59.284;18.022;2022-10-03T16:12:07;7.32;;;3.95;;
12141;SDS011;6134;59.284;18.022;2022-10-03T16:14:38;4.68;;;4.07;;
12141;SDS011;6134;59.284;18.022;2022-10-03T16:17:10;4.20;;;3.80;;
12141;SDS011;6134;59.284;18.022;2022-10-03T16:19:45;5.38;;;3.83;;
12141;SDS011;6134;59.284;18.022;2022-10-03T16:22:19;4.03;;;3.55;;
12141;SDS011;6134;59.284;18.022;2022-10-03T16:24:56;5.30;;;3.95;;
12141;SDS011;6134;59.284;18.022;2022-10-03T16:27:25;4.45;;;4.05;;
12141;SDS011;6134;59.284;18.022;2022-10-03T16:32:42;4.20;;;3.90;;
12141;SDS011;6134;59.284;18.022;2022-10-03T16:35:20;4.70;;;4.25;;
12141;SDS011;6134;59.284;18.022;2022-10-03T16:37:51;4.00;;;3.70;;
12141;SDS011;6134;59.284;18.022;2022-10-03T16:40:20;4.32;;;3.92;;
12141;SDS011;6134;59.284;18.022;2022-10-03T16:42:54;5.55;;;4.07;;
12141;SDS011;6134;59.284;18.022;2022-10-03T16:45:24;4.13;;;3.83;;
12141;SDS011;6134;59.284;18.022;2022-10-03T16:47:54;4.97;;;4.47;;
12141;SDS011;6134;59.284;18.022;2022-10-03T16:50:45;4.30;;;3.90;;
12141;SDS011;6134;59.284;18.022;2022-10-03T16:53:15;5.00;;;4.45;;
12141;SDS011;6134;59.284;18.022;2022-10-03T16:55:44;5.25;;;4.28;;
12141;SDS011;6134;59.284;18.022;2022-10-03T16:58:16;7.07;;;4.50;;
12141;SDS011;6134;59.284;18.022;2022-10-03T17:00:49;4.68;;;4.28;;
12141;SDS011;6134;59.284;18.022;2022-10-03T17:03:39;4.78;;;4.07;;
12141;SDS011;6134;59.284;18.022;2022-10-03T17:06:16;4.28;;;3.92;;
12141;SDS011;6134;59.284;18.022;2022-10-03T17:08:47;4.72;;;4.10;;
12141;SDS011;6134;59.284;18.022;2022-10-03T17:11:17;4.60;;;4.13;;
12141;SDS011;6134;59.284;18.022;2022-10-03T17:13:47;4.85;;;4.45;;
12141;SDS011;6134;59.284;18.022;2022-10-03T17:16:19;7.55;;;4.10;;
12141;SDS011;6134;59.284;18.022;2022-10-03T17:18:58;4.88;;;4.47;;
12141;SDS011;6134;59.284;18.022;2022-10-03T17:21:30;5.00;;;4.15;;
12141;SDS011;6134;59.284;18.022;2022-10-03T17:24:02;4.75;;;4.35;;
12141;SDS011;6134;59.284;18.022;2022-10-03T17:26:33;5.55;;;4.53;;
12141;SDS011;6134;59.284;18.022;2022-10-03T17:29:07;4.55;;;4.15;;
12141;SDS011;6134;59.284;18.022;2022-10-03T17:31:38;4.68;;;4.28;;
12141;SDS011;6134;59.284;18.022;2022-10-03T17:34:10;7.00;;;4.35;;
12141;SDS011;6134;59.284;18.022;2022-10-03T17:36:52;5.00;;;4.50;;
12141;SDS011;6134;59.284;18.022;2022-10-03T17:39:31;5.40;;;4.90;;
12141;SDS011;6134;59.284;18.022;2022-10-03T17:42:03;4.80;;;4.40;;
12141;SDS011;6134;59.284;18.022;2022-10-03T17:44:35;4.70;;;4.30;;
12141;SDS011;6134;59.284;18.022;2022-10-03T17:47:14;4.97;;;4.57;;
12141;SDS011;6134;59.284;18.022;2022-10-03T17:49:47;5.65;;;4.30;;
12141;SDS011;6134;59.284;18.022;2022-10-03T17:52:19;7.43;;;4.35;;
12141;SDS011;6134;59.284;18.022;2022-10-03T17:54:50;7.28;;;4.40;;
12141;SDS011;6134;59.284;18.022;2022-10-03T17:57:21;4.68;;;4.28;;
12141;SDS011;6134;59.284;18.022;2022-10-03T17:59:52;4.70;;;4.30;;
12141;SDS011;6134;59.284;18.022;2022-10-03T18:02:23;6.32;;;4.78;;
12141;SDS011;6134;59.284;18.022;2022-10-03T18:04:54;7.82;;;4.80;;
12141;SDS011;6134;59.284;18.022;2022-10-03T18:07:25;4.68;;;4.28;;
12141;SDS011;6134;59.284;18.022;2022-10-03T18:09:55;5.13;;;4.63;;
12141;SDS011;6134;59.284;18.022;2022-10-03T18:12:27;4.95;;;4.55;;
12141;SDS011;6134;59.284;18.022;2022-10-03T18:15:18;6.97;;;4.55;;
12141;SDS011;6134;59.284;18.022;2022-10-03T18:17:58;5.75;;;5.25;;
12141;SDS011;6134;59.284;18.022;2022-10-03T18:20:39;5.70;;;5.10;;
12141;SDS011;6134;59.284;18.022;2022-10-03T18:23:17;5.80;;;5.10;;
12141;SDS011;6134;59.284;18.022;2022-10-03T18:26:10;5.90;;;5.05;;
12141;SDS011;6134;59.284;18.022;2022-10-03T18:28:46;5.53;;;5.03;;
12141;SDS011;6134;59.284;18.022;2022-10-03T18:31:17;5.93;;;5.38;;
12141;SDS011;6134;59.284;18.022;2022-10-03T18:33:48;7.32;;;5.88;;
12141;SDS011;6134;59.284;18.022;2022-10-03T18:36:21;6.03;;;5.53;;
12141;SDS011;6134;59.284;18.022;2022-10-03T18:38:52;6.82;;;5.28;;
12141;SDS011;6134;59.284;18.022;2022-10-03T18:41:22;5.90;;;5.40;;
12141;SDS011;6134;59.284;18.022;2022-10-03T18:43:52;5.85;;;5.25;;
12141;SDS011;6134;59.284;18.022;2022-10-03T18:46:25;6.10;;;5.38;;
12141;SDS011;6134;59.284;18.022;2022-10-03T18:49:00;6.15;;;5.55;;
12141;SDS011;6134;59.284;18.022;2022-10-03T18:51:50;5.97;;;5.38;;